sensor_id;sensor_type;location;lat;lon;timestamp;pressure;altitude;pressure_sealevel;temperature;humidity
11912;BME280;6016;41.928;25.556;2023-12-20T00:01:58;99502.22;;;4.04;74.98
11912;BME280;6016;41.928;25.556;2023-12-20T00:04:25;99502.16;;;4.06;74.44
11912;BME280;6016;41.928;25.556;2023-12-20T00:06:52;99404.56;;;3.47;73.91
11912;BME280;6016;41.928;25.556;2023-12-20T00:09:19;99496.75;;;4.09;74.06
11912;BME280;6016;41.928;25.556;2023-12-20T00:11:46;99494.69;;;4.00;74.11
11912;BME280;6016;41.928;25.556;2023-12-20T00:14:15;99492.13;;;3.84;75.06
11912;BME280;6016;41.928;25.556;2023-12-20T00:16:42;99479.94;;;3.68;75.37
11912;BME280;6016;41.928;25.556;2023-12-20T00:19:09;99497.31;;;3.84;75.68
11912;BME280;6016;41.928;25.556;2023-12-20T00:21:36;99480.09;;;3.65;74.80
11912;BME280;6016;41.928;25.556;2023-12-20T00:24:04;99462.75;;;3.64;75.42
11912;BME280;6016;41.928;25.556;2023-12-20T00:26:31;99491.19;;;3.85;74.18
11912;BME280;6016;41.928;25.556;2023-12-20T00:28:58;99417.13;;;3.41;73.77
11912;BME280;6016;41.928;25.556;2023-12-20T00:31:26;99492.38;;;3.79;73.87
11912;BME280;6016;41.928;25.556;2023-12-20T00:33:53;99495.53;;;3.84;74.02
11912;BME280;6016;41.928;25.556;2023-12-20T00:36:21;99489.41;;;3.85;73.95
11912;BME280;6016;41.928;25.556;2023-12-20T00:38:47;99491.19;;;3.85;73.74
11912;BME280;6016;41.928;25.556;2023-12-20T00:41:15;99395.69;;;3.19;74.16
11912;BME280;6016;41.928;25.556;2023-12-20T00:43:42;99434.94;;;3.48;74.47
11912;BME280;6016;41.928;25.556;2023-12-20T00:46:10;99484.28;;;3.84;73.89
11912;BME280;6016;41.928;25.556;2023-12-20T00:48:38;99447.66;;;3.55;73.67
11912;BME280;6016;41.928;25.556;2023-12-20T00:51:07;99444.09;;;3.56;74.12
11912;BME280;6016;41.928;25.556;2023-12-20T00:53:34;99472.06;;;3.84;74.37
11912;BME280;6016;41.928;25.556;2023-12-20T00:56:01;99476.19;;;3.88;74.32
11912;BME280;6016;41.928;25.556;2023-12-20T00:58:28;99470.97;;;3.88;74.50
11912;BME280;6016;41.928;25.556;2023-12-20T01:00:55;99466.34;;;3.77;73.84
11912;BME280;6016;41.928;25.556;2023-12-20T01:03:23;99467.38;;;3.75;74.49
11912;BME280;6016;41.928;25.556;2023-12-20T01:05:52;99449.56;;;3.67;74.69
11912;BME280;6016;41.928;25.556;2023-12-20T01:08:19;99452.97;;;3.84;73.67
11912;BME280;6016;41.928;25.556;2023-12-20T01:10:46;99453.72;;;3.86;73.86
11912;BME280;6016;41.928;25.556;2023-12-20T01:13:13;99412.56;;;3.60;73.45
11912;BME280;6016;41.928;25.556;2023-12-20T01:15:39;99454.22;;;3.92;73.91
11912;BME280;6016;41.928;25.556;2023-12-20T01:18:06;99424.00;;;3.58;73.57
11912;BME280;6016;41.928;25.556;2023-12-20T01:20:33;99452.88;;;3.85;74.34
11912;BME280;6016;41.928;25.556;2023-12-20T01:23:01;99434.59;;;3.85;73.87
11912;BME280;6016;41.928;25.556;2023-12-20T01:25:28;99364.72;;;3.45;73.53
11912;BME280;6016;41.928;25.556;2023-12-20T01:27:55;99432.78;;;3.87;73.73
11912;BME280;6016;41.928;25.556;2023-12-20T01:30:22;99437.72;;;3.92;74.31
11912;BME280;6016;41.928;25.556;2023-12-20T01:32:49;99442.09;;;3.91;74.09
11912;BME280;6016;41.928;25.556;2023-12-20T01:35:16;99387.13;;;3.64;74.42
11912;BME280;6016;41.928;25.556;2023-12-20T01:37:43;99401.06;;;3.79;74.69
11912;BME280;6016;41.928;25.556;2023-12-20T01:40:12;99425.94;;;3.85;73.73
11912;BME280;6016;41.928;25.556;2023-12-20T01:42:39;99420.75;;;3.69;73.79
11912;BME280;6016;41.928;25.556;2023-12-20T01:45:06;99391.78;;;3.43;73.78
11912;BME280;6016;41.928;25.556;2023-12-20T01:47:33;99413.63;;;3.56;74.60
11912;BME280;6016;41.928;25.556;2023-12-20T01:50:01;99348.41;;;3.26;74.88
11912;BME280;6016;41.928;25.556;2023-12-20T01:52:29;99409.44;;;3.54;74.50
11912;BME280;6016;41.928;25.556;2023-12-20T01:54:57;99402.41;;;3.40;74.17
11912;BME280;6016;41.928;25.556;2023-12-20T01:57:30;99401.19;;;3.61;74.46
11912;BME280;6016;41.928;25.556;2023-12-20T01:59:57;99364.59;;;3.47;73.59
11912;BME280;6016;41.928;25.556;2023-12-20T02:02:26;99375.31;;;3.42;73.64
11912;BME280;6016;41.928;25.556;2023-12-20T02:04:54;99392.47;;;3.77;73.66
11912;BME280;6016;41.928;25.556;2023-12-20T02:07:22;99387.16;;;3.78;73.58
11912;BME280;6016;41.928;25.556;2023-12-20T02:09:50;99389.41;;;3.85;73.45
11912;BME280;6016;41.928;25.556;2023-12-20T02:12:17;99356.41;;;3.69;73.56
11912;BME280;6016;41.928;25.556;2023-12-20T02:14:46;99355.38;;;3.72;73.07
11912;BME280;6016;41.928;25.556;2023-12-20T02:17:13;99380.75;;;3.84;72.89
11912;BME280;6016;41.928;25.556;2023-12-20T02:19:40;99373.69;;;3.86;73.18
11912;BME280;6016;41.928;25.556;2023-12-20T02:22:10;99313.97;;;3.51;73.08
11912;BME280;6016;41.928;25.556;2023-12-20T02:24:37;99375.63;;;3.83;72.21
11912;BME280;6016;41.928;25.556;2023-12-20T02:27:06;99365.28;;;3.81;72.42
11912;BME280;6016;41.928;25.556;2023-12-20T02:29:33;99348.25;;;3.59;72.65
11912;BME280;6016;41.928;25.556;2023-12-20T02:32:00;99369.94;;;3.76;73.52
11912;BME280;6016;41.928;25.556;2023-12-20T02:34:28;99363.50;;;3.82;73.05
11912;BME280;6016;41.928;25.556;2023-12-20T02:36:55;99365.19;;;3.83;72.80
11912;BME280;6016;41.928;25.556;2023-12-20T02:39:23;99357.09;;;3.87;72.45
11912;BME280;6016;41.928;25.556;2023-12-20T02:41:50;99336.28;;;3.71;71.91
11912;BME280;6016;41.928;25.556;2023-12-20T02:44:17;99340.75;;;3.69;71.17
11912;BME280;6016;41.928;25.556;2023-12-20T02:46:44;99345.97;;;3.69;72.50
11912;BME280;6016;41.928;25.556;2023-12-20T02:49:11;99333.66;;;3.57;72.32
11912;BME280;6016;41.928;25.556;2023-12-20T02:51:38;99276.28;;;3.26;72.16
11912;BME280;6016;41.928;25.556;2023-12-20T02:54:06;99325.63;;;3.60;72.09
11912;BME280;6016;41.928;25.556;2023-12-20T02:56:34;99335.59;;;3.53;72.44
11912;BME280;6016;41.928;25.556;2023-12-20T02:59:01;99336.25;;;3.57;72.09
11912;BME280;6016;41.928;25.556;2023-12-20T03:01:31;99325.91;;;3.55;72.28
11912;BME280;6016;41.928;25.556;2023-12-20T03:03:58;99322.34;;;3.56;72.42
11912;BME280;6016;41.928;25.556;2023-12-20T03:06:25;99310.91;;;3.59;72.64
11912;BME280;6016;41.928;25.556;2023-12-20T03:08:52;99306.25;;;3.64;72.73
11912;BME280;6016;41.928;25.556;2023-12-20T03:11:19;99286.94;;;3.37;72.75
11912;BME280;6016;41.928;25.556;2023-12-20T03:13:47;99308.97;;;3.62;72.88
11912;BME280;6016;41.928;25.556;2023-12-20T03:16:14;99280.75;;;3.55;72.63
11912;BME280;6016;41.928;25.556;2023-12-20T03:18:42;99308.34;;;3.73;72.54
11912;BME280;6016;41.928;25.556;2023-12-20T03:21:09;99224.81;;;3.30;71.99
11912;BME280;6016;41.928;25.556;2023-12-20T03:23:36;99307.22;;;3.77;71.21
11912;BME280;6016;41.928;25.556;2023-12-20T03:26:03;99308.41;;;3.72;71.73
11912;BME280;6016;41.928;25.556;2023-12-20T03:28:30;99238.69;;;3.30;71.87
11912;BME280;6016;41.928;25.556;2023-12-20T03:30:58;99310.88;;;3.75;72.53
11912;BME280;6016;41.928;25.556;2023-12-20T03:33:25;99300.03;;;3.66;72.22
11912;BME280;6016;41.928;25.556;2023-12-20T03:35:52;99305.91;;;3.70;72.03
11912;BME280;6016;41.928;25.556;2023-12-20T03:38:19;99249.97;;;3.45;71.93
11912;BME280;6016;41.928;25.556;2023-12-20T03:40:46;99298.56;;;3.77;71.37
11912;BME280;6016;41.928;25.556;2023-12-20T03:43:14;99285.53;;;3.77;70.72
11912;BME280;6016;41.928;25.556;2023-12-20T03:45:42;99229.19;;;3.44;70.97
11912;BME280;6016;41.928;25.556;2023-12-20T03:48:10;99280.50;;;3.74;71.06
11912;BME280;6016;41.928;25.556;2023-12-20T03:50:37;99247.66;;;3.41;70.69
11912;BME280;6016;41.928;25.556;2023-12-20T03:53:04;99269.03;;;3.31;71.01
11912;BME280;6016;41.928;25.556;2023-12-20T03:55:31;99265.91;;;3.41;71.81
11912;BME280;6016;41.928;25.556;2023-12-20T03:57:58;99234.47;;;3.28;72.15
11912;BME280;6016;41.928;25.556;2023-12-20T04:00:25;99272.25;;;3.51;72.36
11912;BME280;6016;41.928;25.556;2023-12-20T04:02:52;99279.16;;;3.52;72.62
11912;BME280;6016;41.928;25.556;2023-12-20T04:05:20;99093.59;;;2.41;72.71
11912;BME280;6016;41.928;25.556;2023-12-20T04:07:48;99276.28;;;3.57;72.73
11912;BME280;6016;41.928;25.556;2023-12-20T04:10:16;99280.75;;;3.55;72.63
11912;BME280;6016;41.928;25.556;2023-12-20T04:12:43;99283.50;;;3.51;72.97
11912;BME280;6016;41.928;25.556;2023-12-20T04:15:10;99223.69;;;3.19;73.34
11912;BME280;6016;41.928;25.556;2023-12-20T04:17:37;99266.72;;;3.41;73.33
11912;BME280;6016;41.928;25.556;2023-12-20T04:20:05;99285.78;;;3.58;72.83
11912;BME280;6016;41.928;25.556;2023-12-20T04:22:34;99229.44;;;3.24;72.81
11912;BME280;6016;41.928;25.556;2023-12-20T04:25:01;99281.66;;;3.54;72.89
11912;BME280;6016;41.928;25.556;2023-12-20T04:27:29;99280.63;;;3.56;72.73
11912;BME280;6016;41.928;25.556;2023-12-20T04:29:56;99251.25;;;3.38;73.50
11912;BME280;6016;41.928;25.556;2023-12-20T04:32:23;99274.47;;;3.57;73.59
11912;BME280;6016;41.928;25.556;2023-12-20T04:34:49;99282.31;;;3.57;73.67
11912;BME280;6016;41.928;25.556;2023-12-20T04:37:16;99283.25;;;3.56;73.51
11912;BME280;6016;41.928;25.556;2023-12-20T04:39:45;99258.25;;;3.37;73.57
11912;BME280;6016;41.928;25.556;2023-12-20T04:42:12;99277.94;;;3.58;73.55
11912;BME280;6016;41.928;25.556;2023-12-20T04:44:39;99207.38;;;3.16;73.64
11912;BME280;6016;41.928;25.556;2023-12-20T04:47:06;99257.63;;;3.48;73.71
11912;BME280;6016;41.928;25.556;2023-12-20T04:49:33;99248.47;;;3.41;73.07
11912;BME280;6016;41.928;25.556;2023-12-20T04:52:00;99271.78;;;3.59;73.17
11912;BME280;6016;41.928;25.556;2023-12-20T04:54:27;99266.59;;;3.59;73.27
11912;BME280;6016;41.928;25.556;2023-12-20T04:56:55;99264.78;;;3.59;73.33
11912;BME280;6016;41.928;25.556;2023-12-20T04:59:22;99263.13;;;3.58;72.87
11912;BME280;6016;41.928;25.556;2023-12-20T05:01:49;99227.44;;;3.44;72.92
11912;BME280;6016;41.928;25.556;2023-12-20T05:04:17;99221.19;;;3.47;72.96
11912;BME280;6016;41.928;25.556;2023-12-20T05:06:44;99240.31;;;3.62;72.86
11912;BME280;6016;41.928;25.556;2023-12-20T05:09:11;99241.50;;;3.56;73.06
11912;BME280;6016;41.928;25.556;2023-12-20T05:11:38;99275.59;;;3.53;72.88
11912;BME280;6016;41.928;25.556;2023-12-20T05:14:06;99223.31;;;3.40;72.84
11912;BME280;6016;41.928;25.556;2023-12-20T05:16:33;99207.31;;;3.32;72.95
11912;BME280;6016;41.928;25.556;2023-12-20T05:19:00;99222.50;;;3.40;72.96
11912;BME280;6016;41.928;25.556;2023-12-20T05:21:32;99246.06;;;3.52;73.08
11912;BME280;6016;41.928;25.556;2023-12-20T05:23:59;99253.16;;;3.50;73.63
11912;BME280;6016;41.928;25.556;2023-12-20T05:26:26;99250.47;;;3.52;73.42
11912;BME280;6016;41.928;25.556;2023-12-20T05:28:55;99248.88;;;3.49;73.08
11912;BME280;6016;41.928;25.556;2023-12-20T05:31:23;99247.38;;;3.45;72.94
11912;BME280;6016;41.928;25.556;2023-12-20T05:33:50;99245.22;;;3.37;72.70
11912;BME280;6016;41.928;25.556;2023-12-20T05:36:18;99187.06;;;3.06;72.70
11912;BME280;6016;41.928;25.556;2023-12-20T05:38:45;99225.56;;;3.32;72.72
11912;BME280;6016;41.928;25.556;2023-12-20T05:41:12;99232.72;;;3.28;72.04
11912;BME280;6016;41.928;25.556;2023-12-20T05:43:39;99209.56;;;3.07;71.17
11912;BME280;6016;41.928;25.556;2023-12-20T05:46:07;99163.53;;;2.77;71.25
11912;BME280;6016;41.928;25.556;2023-12-20T05:48:35;99164.38;;;2.78;71.38
11912;BME280;6016;41.928;25.556;2023-12-20T05:51:02;99225.69;;;3.14;71.48
11912;BME280;6016;41.928;25.556;2023-12-20T05:53:29;99204.75;;;3.01;71.48
11912;BME280;6016;41.928;25.556;2023-12-20T05:55:56;99218.53;;;3.18;71.92
11912;BME280;6016;41.928;25.556;2023-12-20T05:58:25;99189.66;;;3.06;72.14
11912;BME280;6016;41.928;25.556;2023-12-20T06:01:03;99208.84;;;3.05;72.03
11912;BME280;6016;41.928;25.556;2023-12-20T06:10:41;99211.94;;;3.27;72.79
11912;BME280;6016;41.928;25.556;2023-12-20T06:13:34;99179.63;;;3.15;73.08
11912;BME280;6016;41.928;25.556;2023-12-20T06:16:26;99200.50;;;3.29;73.06
11912;BME280;6016;41.928;25.556;2023-12-20T06:19:36;99124.75;;;2.87;74.04
11912;BME280;6016;41.928;25.556;2023-12-20T06:23:02;99210.41;;;3.38;72.79
11912;BME280;6016;41.928;25.556;2023-12-20T06:25:34;99205.06;;;4.13;73.46
11912;BME280;6016;41.928;25.556;2023-12-20T06:28:52;99192.53;;;5.91;65.92
11912;BME280;6016;41.928;25.556;2023-12-20T06:31:46;99199.28;;;5.56;64.33
11912;BME280;6016;41.928;25.556;2023-12-20T06:35:01;99198.59;;;5.01;66.29
11912;BME280;6016;41.928;25.556;2023-12-20T06:38:09;99203.34;;;4.68;67.11
11912;BME280;6016;41.928;25.556;2023-12-20T06:48:09;99206.53;;;4.17;69.58
11912;BME280;6016;41.928;25.556;2023-12-20T06:51:30;99202.00;;;4.06;70.28
11912;BME280;6016;41.928;25.556;2023-12-20T06:54:18;99211.63;;;3.76;70.07
11912;BME280;6016;41.928;25.556;2023-12-20T07:00:38;99210.47;;;3.22;72.22
11912;BME280;6016;41.928;25.556;2023-12-20T07:06:45;99192.22;;;3.22;72.44
11912;BME280;6016;41.928;25.556;2023-12-20T07:09:28;99196.03;;;3.31;72.78
11912;BME280;6016;41.928;25.556;2023-12-20T07:12:12;99189.53;;;3.38;72.69
11912;BME280;6016;41.928;25.556;2023-12-20T07:15:03;99162.53;;;3.40;72.24
11912;BME280;6016;41.928;25.556;2023-12-20T07:17:43;99180.06;;;3.66;72.25
11912;BME280;6016;41.928;25.556;2023-12-20T07:48:17;99155.44;;;4.55;71.71
11912;BME280;6016;41.928;25.556;2023-12-20T07:50:44;99149.28;;;4.56;71.68
11912;BME280;6016;41.928;25.556;2023-12-20T07:53:11;99150.28;;;4.53;71.46
11912;BME280;6016;41.928;25.556;2023-12-20T07:55:39;99151.31;;;4.78;71.66
11912;BME280;6016;41.928;25.556;2023-12-20T07:58:06;99131.47;;;4.75;71.66
11912;BME280;6016;41.928;25.556;2023-12-20T08:00:33;99143.94;;;4.98;71.16
11912;BME280;6016;41.928;25.556;2023-12-20T08:03:00;99146.44;;;5.12;70.83
11912;BME280;6016;41.928;25.556;2023-12-20T08:05:30;99124.69;;;5.12;71.07
11912;BME280;6016;41.928;25.556;2023-12-20T08:07:57;99157.94;;;5.35;70.79
11912;BME280;6016;41.928;25.556;2023-12-20T08:10:24;99061.13;;;4.85;70.02
11912;BME280;6016;41.928;25.556;2023-12-20T08:12:51;99098.44;;;5.26;70.01
11912;BME280;6016;41.928;25.556;2023-12-20T08:15:18;99085.53;;;5.49;71.58
11912;BME280;6016;41.928;25.556;2023-12-20T08:17:45;99101.28;;;6.35;67.92
11912;BME280;6016;41.928;25.556;2023-12-20T08:20:12;99130.78;;;6.86;65.36
11912;BME280;6016;41.928;25.556;2023-12-20T08:22:43;99134.22;;;6.75;65.62
11912;BME280;6016;41.928;25.556;2023-12-20T08:25:10;99112.69;;;6.47;66.65
11912;BME280;6016;41.928;25.556;2023-12-20T08:27:39;99097.72;;;6.36;67.00
11912;BME280;6016;41.928;25.556;2023-12-20T08:30:09;99057.91;;;6.19;66.63
11912;BME280;6016;41.928;25.556;2023-12-20T08:32:36;99128.59;;;6.68;66.78
11912;BME280;6016;41.928;25.556;2023-12-20T08:35:03;99124.22;;;6.80;66.09
11912;BME280;6016;41.928;25.556;2023-12-20T08:37:31;99119.78;;;6.69;66.70
11912;BME280;6016;41.928;25.556;2023-12-20T08:39:59;99036.41;;;6.03;66.59
11912;BME280;6016;41.928;25.556;2023-12-20T08:42:26;99114.16;;;6.63;67.32
11912;BME280;6016;41.928;25.556;2023-12-20T08:44:56;99091.16;;;6.55;66.72
11912;BME280;6016;41.928;25.556;2023-12-20T08:47:24;99093.13;;;6.87;67.23
11912;BME280;6016;41.928;25.556;2023-12-20T08:49:52;99091.13;;;7.02;66.09
11912;BME280;6016;41.928;25.556;2023-12-20T08:52:22;99088.59;;;7.00;66.49
11912;BME280;6016;41.928;25.556;2023-12-20T08:54:49;99008.97;;;6.67;65.85
11912;BME280;6016;41.928;25.556;2023-12-20T08:57:19;99086.50;;;7.17;65.78
11912;BME280;6016;41.928;25.556;2023-12-20T08:59:48;99032.47;;;7.03;66.15
11912;BME280;6016;41.928;25.556;2023-12-20T09:02:16;99019.97;;;7.07;65.94
11912;BME280;6016;41.928;25.556;2023-12-20T09:04:43;99053.31;;;7.62;66.14
11912;BME280;6016;41.928;25.556;2023-12-20T09:07:21;99059.34;;;7.96;65.45
11912;BME280;6016;41.928;25.556;2023-12-20T09:09:48;99046.88;;;8.10;64.65
11912;BME280;6016;41.928;25.556;2023-12-20T09:12:15;99046.69;;;8.23;64.56
11912;BME280;6016;41.928;25.556;2023-12-20T09:14:43;99036.13;;;8.34;64.93
11912;BME280;6016;41.928;25.556;2023-12-20T09:17:10;99033.94;;;8.39;63.36
11912;BME280;6016;41.928;25.556;2023-12-20T09:19:38;99031.63;;;8.25;64.70
11912;BME280;6016;41.928;25.556;2023-12-20T09:22:05;99016.66;;;8.37;64.19
11912;BME280;6016;41.928;25.556;2023-12-20T09:24:31;99011.19;;;8.50;64.36
11912;BME280;6016;41.928;25.556;2023-12-20T09:26:58;99011.53;;;8.56;63.89
11912;BME280;6016;41.928;25.556;2023-12-20T09:29:25;99011.63;;;8.66;64.49
11912;BME280;6016;41.928;25.556;2023-12-20T09:31:53;98997.38;;;8.69;64.42
11912;BME280;6016;41.928;25.556;2023-12-20T09:34:20;98974.88;;;8.55;64.32
11912;BME280;6016;41.928;25.556;2023-12-20T09:36:47;98987.53;;;8.71;65.07
11912;BME280;6016;41.928;25.556;2023-12-20T09:39:15;98904.53;;;8.26;65.23
11912;BME280;6016;41.928;25.556;2023-12-20T09:41:45;98922.22;;;8.45;64.58
11912;BME280;6016;41.928;25.556;2023-12-20T09:44:15;98973.69;;;8.69;65.41
11912;BME280;6016;41.928;25.556;2023-12-20T09:46:44;98926.19;;;8.39;65.44
11912;BME280;6016;41.928;25.556;2023-12-20T09:49:14;98963.19;;;8.48;65.72
11912;BME280;6016;41.928;25.556;2023-12-20T09:51:41;98697.72;;;6.92;66.08
11912;BME280;6016;41.928;25.556;2023-12-20T09:54:09;98606.66;;;6.52;65.71
11912;BME280;6016;41.928;25.556;2023-12-20T09:56:37;98948.59;;;8.86;65.96
11912;BME280;6016;41.928;25.556;2023-12-20T09:59:04;98949.03;;;8.91;65.24
11912;BME280;6016;41.928;25.556;2023-12-20T10:01:31;98929.22;;;8.87;64.82
11912;BME280;6016;41.928;25.556;2023-12-20T10:04:01;98938.66;;;8.99;65.00
11912;BME280;6016;41.928;25.556;2023-12-20T10:06:34;98899.16;;;8.80;64.58
11912;BME280;6016;41.928;25.556;2023-12-20T10:09:01;98934.16;;;9.11;65.08
11912;BME280;6016;41.928;25.556;2023-12-20T10:11:29;98938.75;;;9.19;64.92
11912;BME280;6016;41.928;25.556;2023-12-20T10:13:59;98929.03;;;9.20;64.78
11912;BME280;6016;41.928;25.556;2023-12-20T10:16:27;98922.94;;;9.19;64.81
11912;BME280;6016;41.928;25.556;2023-12-20T10:18:54;98913.41;;;9.28;65.01
11912;BME280;6016;41.928;25.556;2023-12-20T10:21:22;98915.34;;;9.36;64.78
11912;BME280;6016;41.928;25.556;2023-12-20T10:23:51;98900.81;;;9.41;65.35
11912;BME280;6016;41.928;25.556;2023-12-20T10:26:22;98767.34;;;8.63;64.19
11912;BME280;6016;41.928;25.556;2023-12-20T10:28:51;98897.91;;;9.54;64.04
11912;BME280;6016;41.928;25.556;2023-12-20T10:31:29;98894.59;;;9.72;63.92
11912;BME280;6016;41.928;25.556;2023-12-20T10:33:57;98844.69;;;9.61;63.52
11912;BME280;6016;41.928;25.556;2023-12-20T10:36:26;98886.66;;;10.02;63.94
11912;BME280;6016;41.928;25.556;2023-12-20T10:38:55;98884.00;;;10.11;63.23
11912;BME280;6016;41.928;25.556;2023-12-20T10:41:25;98886.88;;;10.18;63.01
11912;BME280;6016;41.928;25.556;2023-12-20T10:43:56;98865.16;;;10.06;63.44
11912;BME280;6016;41.928;25.556;2023-12-20T10:46:26;98851.25;;;10.04;62.58
11912;BME280;6016;41.928;25.556;2023-12-20T10:48:54;98868.34;;;10.00;62.49
11912;BME280;6016;41.928;25.556;2023-12-20T10:51:22;98833.75;;;9.65;64.15
11912;BME280;6016;41.928;25.556;2023-12-20T10:53:50;98864.19;;;9.88;64.36
11912;BME280;6016;41.928;25.556;2023-12-20T10:56:19;98861.16;;;9.92;63.30
11912;BME280;6016;41.928;25.556;2023-12-20T10:58:47;98851.00;;;9.97;63.63
11912;BME280;6016;41.928;25.556;2023-12-20T11:01:16;98857.13;;;9.98;63.49
11912;BME280;6016;41.928;25.556;2023-12-20T11:03:47;98849.63;;;9.93;63.39
11912;BME280;6016;41.928;25.556;2023-12-20T11:06:29;98823.75;;;9.69;64.27
11912;BME280;6016;41.928;25.556;2023-12-20T11:09:10;98845.91;;;9.76;63.69
11912;BME280;6016;41.928;25.556;2023-12-20T11:11:52;98841.22;;;9.70;63.78
11912;BME280;6016;41.928;25.556;2023-12-20T11:14:25;98834.41;;;9.77;63.68
11912;BME280;6016;41.928;25.556;2023-12-20T11:17:05;98717.25;;;9.14;63.00
11912;BME280;6016;41.928;25.556;2023-12-20T11:19:31;98824.72;;;9.78;63.13
11912;BME280;6016;41.928;25.556;2023-12-20T11:21:58;98825.56;;;9.68;63.09
11912;BME280;6016;41.928;25.556;2023-12-20T11:24:25;98813.94;;;9.61;64.73
11912;BME280;6016;41.928;25.556;2023-12-20T11:26:56;98798.53;;;9.47;64.09
11912;BME280;6016;41.928;25.556;2023-12-20T11:29:31;98812.84;;;9.44;63.47
11912;BME280;6016;41.928;25.556;2023-12-20T11:31:59;98798.69;;;9.45;64.18
11912;BME280;6016;41.928;25.556;2023-12-20T11:34:27;98634.03;;;8.14;64.09
11912;BME280;6016;41.928;25.556;2023-12-20T11:36:58;98789.84;;;9.36;63.78
11912;BME280;6016;41.928;25.556;2023-12-20T11:39:26;98743.59;;;9.24;64.95
11912;BME280;6016;41.928;25.556;2023-12-20T11:41:56;98796.44;;;9.60;64.12
11912;BME280;6016;41.928;25.556;2023-12-20T11:44:25;98692.50;;;9.07;65.04
11912;BME280;6016;41.928;25.556;2023-12-20T11:46:52;98788.13;;;9.75;64.98
11912;BME280;6016;41.928;25.556;2023-12-20T11:49:23;98761.78;;;9.65;64.62
11912;BME280;6016;41.928;25.556;2023-12-20T11:51:50;98780.63;;;9.80;64.00
11912;BME280;6016;41.928;25.556;2023-12-20T11:54:18;98768.13;;;9.82;63.78
11912;BME280;6016;41.928;25.556;2023-12-20T11:56:46;98768.13;;;9.82;64.41
11912;BME280;6016;41.928;25.556;2023-12-20T11:59:14;98731.03;;;9.65;63.99
11912;BME280;6016;41.928;25.556;2023-12-20T12:01:48;98739.50;;;9.69;63.78
11912;BME280;6016;41.928;25.556;2023-12-20T12:04:15;98739.31;;;9.70;64.24
11912;BME280;6016;41.928;25.556;2023-12-20T12:06:43;98748.88;;;9.81;63.87
11912;BME280;6016;41.928;25.556;2023-12-20T12:09:11;98744.72;;;9.79;64.19
11912;BME280;6016;41.928;25.556;2023-12-20T12:11:38;98722.03;;;9.68;64.75
11912;BME280;6016;41.928;25.556;2023-12-20T12:14:06;98735.13;;;9.88;63.87
11912;BME280;6016;41.928;25.556;2023-12-20T12:16:35;98734.88;;;10.09;63.91
11912;BME280;6016;41.928;25.556;2023-12-20T12:19:02;98722.75;;;10.26;62.97
11912;BME280;6016;41.928;25.556;2023-12-20T12:21:29;98681.13;;;10.02;61.65
11912;BME280;6016;41.928;25.556;2023-12-20T12:24:06;98715.75;;;10.07;62.36
11912;BME280;6016;41.928;25.556;2023-12-20T12:26:33;98713.84;;;9.99;62.96
11912;BME280;6016;41.928;25.556;2023-12-20T12:29:00;98708.97;;;10.04;63.71
11912;BME280;6016;41.928;25.556;2023-12-20T12:31:28;98709.28;;;10.01;63.81
11912;BME280;6016;41.928;25.556;2023-12-20T12:33:57;98708.72;;;9.97;63.79
11912;BME280;6016;41.928;25.556;2023-12-20T12:36:24;98702.09;;;9.93;63.17
11912;BME280;6016;41.928;25.556;2023-12-20T12:38:51;98702.97;;;9.84;63.79
11912;BME280;6016;41.928;25.556;2023-12-20T12:41:18;98710.47;;;9.79;64.94
11912;BME280;6016;41.928;25.556;2023-12-20T12:43:45;98690.09;;;9.81;64.05
11912;BME280;6016;41.928;25.556;2023-12-20T12:46:12;98696.19;;;9.81;63.38
11912;BME280;6016;41.928;25.556;2023-12-20T12:48:39;98685.66;;;9.81;63.66
11912;BME280;6016;41.928;25.556;2023-12-20T12:51:07;98686.63;;;9.80;64.14
11912;BME280;6016;41.928;25.556;2023-12-20T12:53:38;98687.75;;;9.78;64.12
11912;BME280;6016;41.928;25.556;2023-12-20T12:56:05;98677.66;;;9.73;64.51
11912;BME280;6016;41.928;25.556;2023-12-20T12:58:33;98474.72;;;8.43;64.10
11912;BME280;6016;41.928;25.556;2023-12-20T13:01:00;98643.94;;;9.39;65.22
11912;BME280;6016;41.928;25.556;2023-12-20T13:03:27;98677.44;;;9.56;64.16
11912;BME280;6016;41.928;25.556;2023-12-20T13:05:54;98678.00;;;9.50;64.90
11912;BME280;6016;41.928;25.556;2023-12-20T13:08:22;98683.16;;;9.42;65.52
11912;BME280;6016;41.928;25.556;2023-12-20T13:10:49;98658.00;;;9.20;65.58
11912;BME280;6016;41.928;25.556;2023-12-20T13:13:16;98675.97;;;9.34;65.79
11912;BME280;6016;41.928;25.556;2023-12-20T13:15:43;98674.03;;;9.36;66.42
11912;BME280;6016;41.928;25.556;2023-12-20T13:18:16;98678.31;;;9.37;66.39
11912;BME280;6016;41.928;25.556;2023-12-20T13:20:43;98675.81;;;9.36;66.48
11912;BME280;6016;41.928;25.556;2023-12-20T13:23:10;98671.53;;;9.35;66.31
11912;BME280;6016;41.928;25.556;2023-12-20T13:25:39;98673.31;;;9.34;66.58
11912;BME280;6016;41.928;25.556;2023-12-20T13:28:06;98654.53;;;9.19;66.66
11912;BME280;6016;41.928;25.556;2023-12-20T13:30:33;98664.06;;;9.30;66.66
11912;BME280;6016;41.928;25.556;2023-12-20T13:33:01;98660.75;;;9.28;67.02
11912;BME280;6016;41.928;25.556;2023-12-20T13:35:28;98650.66;;;9.23;67.36
11912;BME280;6016;41.928;25.556;2023-12-20T13:37:55;98646.66;;;9.19;67.19
11912;BME280;6016;41.928;25.556;2023-12-20T13:40:22;98649.53;;;9.16;66.94
11912;BME280;6016;41.928;25.556;2023-12-20T13:42:51;98650.81;;;9.12;66.95
11912;BME280;6016;41.928;25.556;2023-12-20T13:45:18;98640.88;;;9.06;66.88
11912;BME280;6016;41.928;25.556;2023-12-20T13:47:45;98625.94;;;8.86;66.83
11912;BME280;6016;41.928;25.556;2023-12-20T13:50:12;98563.69;;;8.48;67.82
11912;BME280;6016;41.928;25.556;2023-12-20T13:52:39;98641.16;;;8.93;68.33
11912;BME280;6016;41.928;25.556;2023-12-20T13:55:06;98631.88;;;8.89;68.74
11912;BME280;6016;41.928;25.556;2023-12-20T13:57:34;98590.94;;;8.56;68.88
11912;BME280;6016;41.928;25.556;2023-12-20T14:00:05;98611.53;;;8.71;69.11
11912;BME280;6016;41.928;25.556;2023-12-20T14:02:40;98620.97;;;8.73;69.10
11912;BME280;6016;41.928;25.556;2023-12-20T14:05:07;98619.59;;;8.69;69.26
11912;BME280;6016;41.928;25.556;2023-12-20T14:07:34;98615.56;;;8.65;68.97
11912;BME280;6016;41.928;25.556;2023-12-20T14:10:01;98616.00;;;8.61;69.77
11912;BME280;6016;41.928;25.556;2023-12-20T14:12:28;98604.09;;;8.56;70.08